Terminal Aerodrome Forecast
Issued by NWS Pittsburgh, PA

Current Version | Previous Version | Text Only | Print | Product List | Glossary Off
Versions: 1 2 3 4 5 6 7 8 9 10 11 12 13 14 15 16 17 18 19 20 21 22 23 24 25 26 27 28 29

402
FTUS41 KPBZ 061457 AAA
TAFPIT
TAF AMD
KPIT 061457Z 0615/0718 12010G18KT P6SM -RA BKN035
     FM061800 13010G18KT 3SM -RA OVC015
     FM070000 12005KT P6SM -RA OVC008
     FM070600 27008KT P6SM BKN015=

USA.gov is the U.S. government's official web portal to all federal, state and local government web resources and services.